Time;durP1;ratioP1;P1;durP2;ratioP2;P2;SDS_P1;SDS_P2;PMS_P1;PMS_P2;Temp;Humidity;BMP_temperature;BMP_pressure;BME280_temperature;BME280_humidity;BME280_pressure;Samples;Min_cycle;Max_cycle;Signal;HPM_P1;HPM_P2
2022/10/27 00:01:12;;;;;;;;;;;19.70;54.10;;;;;;8367028;28;19920;-45
2022/10/27 00:05:12;;;;;;;;;;;19.70;54.20;;;;;;8366608;28;20007;-44
2022/10/27 00:09:13;;;;;;;;;;;19.70;54.10;;;;;;8366463;28;19954;-44
2022/10/27 00:13:13;;;;;;;;;;;19.80;54.20;;;;;;8366437;28;19939;-45
2022/10/27 00:17:14;;;;;;;;;;;19.80;54.20;;;;;;8366421;28;19925;-45
2022/10/27 00:21:15;;;;;;;;;;;19.80;54.20;;;;;;8365882;28;19967;-45
2022/10/27 00:25:16;;;;;;;;;;;19.70;54.20;;;;;;8366174;28;20011;-45
2022/10/27 00:29:16;;;;;;;;;;;19.70;54.10;;;;;;8366198;28;20374;-46
2022/10/27 00:33:17;;;;;;;;;;;19.70;54.20;;;;;;8365381;28;20366;-44
2022/10/27 00:37:17;;;;;;;;;;;19.70;54.10;;;;;;8365883;28;20297;-45
2022/10/27 00:41:38;;;;;;;;;;;19.70;54.20;;;;;;8365690;28;19942;-44
2022/10/27 00:45:38;;;;;;;;;;;19.70;54.20;;;;;;8365110;28;20003;-45
2022/10/27 00:49:42;;;;;;;;;;;19.70;54.20;;;;;;8356879;28;19917;-43
2022/10/27 00:53:43;;;;;;;;;;;19.70;54.20;;;;;;8363546;28;19920;-44
2022/10/27 00:57:44;;;;;;;;;;;19.70;54.20;;;;;;8364629;28;19916;-44
2022/10/27 01:01:45;;;;;;;;;;;19.70;54.20;;;;;;8364916;28;20286;-44
2022/10/27 01:05:46;;;;;;;;;;;19.70;54.20;;;;;;8364862;28;19963;-44
2022/10/27 01:09:47;;;;;;;;;;;19.60;54.20;;;;;;8358400;28;20012;-44
2022/10/27 01:13:48;;;;;;;;;;;19.60;54.10;;;;;;8363627;28;19925;-44
2022/10/27 01:17:48;;;;;;;;;;;19.60;54.20;;;;;;8364504;28;19995;-45
2022/10/27 01:21:58;;;;;;;;;;;19.60;54.10;;;;;;8363953;28;19952;-44
2022/10/27 01:26:19;;;;;;;;;;;19.60;54.20;;;;;;8364224;28;20010;-44
2022/10/27 01:30:22;;;;;;;;;;;19.60;54.20;;;;;;8363742;28;19913;-45
2022/10/27 01:34:58;;;;;;;;;;;19.60;54.10;;;;;;8364254;28;19967;-45
2022/10/27 01:39:07;;;;;;;;;;;19.60;54.10;;;;;;8336754;28;19917;-44
2022/10/27 01:43:13;;;;;;;;;;;19.60;54.20;;;;;;8363830;28;20432;-46
2022/10/27 01:47:14;;;;;;;;;;;19.60;54.20;;;;;;8363776;28;19923;-45
2022/10/27 01:51:15;;;;;;;;;;;19.60;54.20;;;;;;8363308;28;19916;-46
2022/10/27 01:55:27;;;;;;;;;;;19.60;54.20;;;;;;8363848;28;20378;-47
2022/10/27 01:59:30;;;;;;;;;;;19.60;54.20;;;;;;8363791;28;19917;-46
2022/10/27 02:03:39;;;;;;;;;;;19.50;54.10;;;;;;8362741;28;19921;-45
2022/10/27 02:07:58;;;;;;;;;;;19.50;54.10;;;;;;8363393;28;19955;-45
2022/10/27 02:12:00;;;;;;;;;;;19.50;54.10;;;;;;8362873;28;19962;-45
2022/10/27 02:16:04;;;;;;;;;;;19.50;54.20;;;;;;8363036;28;19964;-45
2022/10/27 02:20:07;;;;;;;;;;;19.50;54.20;;;;;;8363202;28;19919;-45
2022/10/27 02:24:08;;;;;;;;;;;19.50;54.20;;;;;;8362700;28;20011;-46
2022/10/27 02:28:10;;;;;;;;;;;19.50;54.20;;;;;;8363343;28;19917;-45
2022/10/27 02:32:13;;;;;;;;;;;19.50;54.20;;;;;;8362976;28;19936;-45
2022/10/27 02:36:13;;;;;;;;;;;19.50;54.10;;;;;;8362359;28;20003;-45
2022/10/27 02:40:14;;;;;;;;;;;19.50;54.10;;;;;;8363131;28;20051;-45
2022/10/27 02:44:14;;;;;;;;;;;19.50;54.10;;;;;;8362704;28;19971;-44
2022/10/27 02:48:15;;;;;;;;;;;19.50;54.10;;;;;;8362333;28;19924;-46
2022/10/27 02:52:15;;;;;;;;;;;19.50;54.10;;;;;;8362633;28;20268;-44
2022/10/27 02:56:16;;;;;;;;;;;19.50;54.10;;;;;;8362512;28;20309;-45
2022/10/27 03:00:16;;;;;;;;;;;19.50;54.00;;;;;;8362328;28;20327;-44
2022/10/27 03:04:17;;;;;;;;;;;19.50;54.00;;;;;;8362679;28;20362;-45
2022/10/27 03:08:17;;;;;;;;;;;19.40;54.00;;;;;;8362441;28;19917;-45
2022/10/27 03:12:18;;;;;;;;;;;19.40;54.00;;;;;;8361990;28;19995;-45
2022/10/27 03:16:18;;;;;;;;;;;19.40;54.00;;;;;;8366301;28;19971;-45
2022/10/27 03:20:19;;;;;;;;;;;19.40;54.00;;;;;;8368410;28;20362;-45
2022/10/27 03:24:19;;;;;;;;;;;19.50;54.00;;;;;;8367543;28;19920;-45
2022/10/27 03:28:20;;;;;;;;;;;19.40;53.90;;;;;;8368110;28;20361;-45
2022/10/27 03:32:20;;;;;;;;;;;19.40;54.00;;;;;;8367894;28;20292;-44
2022/10/27 03:36:20;;;;;;;;;;;19.40;53.90;;;;;;8367528;28;19932;-45
2022/10/27 03:40:21;;;;;;;;;;;19.40;53.90;;;;;;8367880;28;20042;-45
2022/10/27 03:44:21;;;;;;;;;;;19.40;53.90;;;;;;8367634;28;19920;-44
2022/10/27 03:48:22;;;;;;;;;;;19.40;53.90;;;;;;8366928;28;19924;-45
2022/10/27 03:52:22;;;;;;;;;;;19.40;53.90;;;;;;8367438;28;19928;-45
2022/10/27 03:56:23;;;;;;;;;;;19.40;53.90;;;;;;8367468;28;19932;-46
2022/10/27 04:00:24;;;;;;;;;;;19.40;53.90;;;;;;8366879;28;19919;-45
2022/10/27 04:04:24;;;;;;;;;;;19.40;53.80;;;;;;8367298;28;19928;-45
2022/10/27 04:08:26;;;;;;;;;;;19.40;53.90;;;;;;8366098;28;20356;-45
2022/10/27 04:12:27;;;;;;;;;;;19.40;53.90;;;;;;8365093;28;19924;-45
2022/10/27 04:16:27;;;;;;;;;;;19.40;53.90;;;;;;8366229;28;19925;-44
2022/10/27 04:20:28;;;;;;;;;;;19.40;53.80;;;;;;8366553;28;20373;-45
2022/10/27 04:24:28;;;;;;;;;;;19.40;53.90;;;;;;8365728;28;20428;-46
2022/10/27 04:28:29;;;;;;;;;;;19.40;53.80;;;;;;8366049;28;19917;-45
2022/10/27 04:32:29;;;;;;;;;;;19.40;53.80;;;;;;8365990;28;20263;-45
2022/10/27 04:36:30;;;;;;;;;;;19.40;53.80;;;;;;8365346;28;20412;-46
2022/10/27 04:40:30;;;;;;;;;;;19.40;53.80;;;;;;8365900;28;19917;-45
2022/10/27 04:44:30;;;;;;;;;;;19.40;53.80;;;;;;8365695;28;19977;-45
2022/10/27 04:48:31;;;;;;;;;;;19.40;53.80;;;;;;8365095;28;20293;-46
2022/10/27 04:52:31;;;;;;;;;;;19.40;54.30;;;;;;8365708;28;19917;-45
2022/10/27 04:56:32;;;;;;;;;;;19.30;53.70;;;;;;8365204;28;20387;-47
2022/10/27 05:00:32;;;;;;;;;;;19.30;53.70;;;;;;8364861;28;19916;-46
2022/10/27 05:04:33;;;;;;;;;;;19.30;53.70;;;;;;8364828;28;19924;-45
2022/10/27 05:08:33;;;;;;;;;;;19.30;53.70;;;;;;8365030;28;20447;-44
2022/10/27 05:12:34;;;;;;;;;;;19.30;53.80;;;;;;8364789;28;20002;-45
2022/10/27 05:16:34;;;;;;;;;;;19.30;53.70;;;;;;8364968;28;19966;-46
2022/10/27 05:20:35;;;;;;;;;;;19.30;53.80;;;;;;8364438;28;19917;-45
2022/10/27 05:24:35;;;;;;;;;;;19.30;53.70;;;;;;8363852;28;19921;-45
2022/10/27 05:28:36;;;;;;;;;;;19.30;53.80;;;;;;8364427;28;19920;-45
2022/10/27 05:32:38;;;;;;;;;;;19.30;53.70;;;;;;8364271;28;19928;-44
2022/10/27 05:36:38;;;;;;;;;;;19.20;53.80;;;;;;8363356;28;19965;-44
2022/10/27 05:40:38;;;;;;;;;;;19.30;53.70;;;;;;8363681;28;19963;-44
2022/10/27 05:44:39;;;;;;;;;;;19.30;53.70;;;;;;8364025;28;19969;-44
2022/10/27 05:48:39;;;;;;;;;;;19.20;53.70;;;;;;8363190;28;19916;-45
2022/10/27 05:52:40;;;;;;;;;;;19.20;53.60;;;;;;8363593;28;19917;-45
2022/10/27 05:56:40;;;;;;;;;;;19.20;53.70;;;;;;8363768;28;20378;-43
2022/10/27 06:00:41;;;;;;;;;;;19.20;53.70;;;;;;8363123;28;20370;-45
2022/10/27 06:04:41;;;;;;;;;;;19.20;53.70;;;;;;8363185;28;20332;-44
2022/10/27 06:08:41;;;;;;;;;;;19.20;53.60;;;;;;8363229;28;20289;-43
2022/10/27 06:12:42;;;;;;;;;;;19.30;53.70;;;;;;8362911;28;19917;-45
2022/10/27 06:16:42;;;;;;;;;;;19.20;53.70;;;;;;8363480;28;19932;-44
2022/10/27 06:20:43;;;;;;;;;;;19.20;53.60;;;;;;8363020;28;19960;-45
2022/10/27 06:24:43;;;;;;;;;;;19.20;53.60;;;;;;8362535;28;19920;-44
2022/10/27 06:28:44;;;;;;;;;;;19.20;53.60;;;;;;8362066;28;19917;-43
2022/10/27 06:32:44;;;;;;;;;;;19.20;53.60;;;;;;8362967;28;20358;-45
2022/10/27 06:36:45;;;;;;;;;;;19.20;53.70;;;;;;8362397;28;19928;-45
2022/10/27 06:40:45;;;;;;;;;;;19.20;53.60;;;;;;8363159;28;19917;-44
2022/10/27 06:44:46;;;;;;;;;;;19.20;53.60;;;;;;8362220;28;19917;-46
2022/10/27 06:48:46;;;;;;;;;;;19.20;53.70;;;;;;8362209;28;19917;-45
2022/10/27 06:52:46;;;;;;;;;;;19.20;53.70;;;;;;8369240;28;19923;-44
2022/10/27 06:56:47;;;;;;;;;;;19.20;53.70;;;;;;8368935;28;19956;-44
2022/10/27 07:00:47;;;;;;;;;;;19.20;53.70;;;;;;8368260;28;19986;-44
2022/10/27 07:04:48;;;;;;;;;;;19.10;53.60;;;;;;8368511;28;20385;-44
2022/10/27 07:08:51;;;;;;;;;;;19.20;53.70;;;;;;8355536;28;19955;-44
2022/10/27 07:12:53;;;;;;;;;;;19.20;53.60;;;;;;8367986;28;19923;-44
2022/10/27 07:16:53;;;;;;;;;;;19.20;53.70;;;;;;8368449;28;19955;-45
2022/10/27 07:20:54;;;;;;;;;;;19.20;53.60;;;;;;8367793;28;20288;-44
2022/10/27 07:24:54;;;;;;;;;;;19.20;53.60;;;;;;8367897;28;19917;-44
2022/10/27 07:28:54;;;;;;;;;;;19.20;53.60;;;;;;8367971;28;19939;-44
2022/10/27 07:32:56;;;;;;;;;;;19.20;53.50;;;;;;8367703;28;19923;-46
2022/10/27 07:36:56;;;;;;;;;;;19.30;53.60;;;;;;8367789;28;20139;-44
2022/10/27 07:40:56;;;;;;;;;;;19.20;53.40;;;;;;8367776;28;19916;-44
2022/10/27 07:44:57;;;;;;;;;;;19.30;53.40;;;;;;8367065;28;20390;-44
2022/10/27 07:48:57;;;;;;;;;;;19.30;53.50;;;;;;8367220;28;20362;-44
2022/10/27 07:52:59;;;;;;;;;;;19.20;53.50;;;;;;8367564;28;19924;-44
2022/10/27 07:56:59;;;;;;;;;;;19.30;53.50;;;;;;8366751;28;19928;-45
2022/10/27 08:01:02;;;;;;;;;;;19.20;53.40;;;;;;8366434;28;19917;-44
2022/10/27 08:05:03;;;;;;;;;;;19.20;53.40;;;;;;8366879;28;19921;-44
2022/10/27 08:09:03;;;;;;;;;;;19.20;53.50;;;;;;8366179;28;20425;-45
2022/10/27 08:13:04;;;;;;;;;;;19.20;53.50;;;;;;8366609;28;19920;-45
2022/10/27 08:17:04;;;;;;;;;;;19.30;53.50;;;;;;8366538;28;19921;-46
2022/10/27 08:21:05;;;;;;;;;;;19.20;53.50;;;;;;8365901;28;19917;-45
2022/10/27 08:25:06;;;;;;;;;;;19.20;53.60;;;;;;8366453;28;20004;-46
2022/10/27 08:29:06;;;;;;;;;;;19.20;53.60;;;;;;8366026;28;19921;-44
2022/10/27 08:33:07;;;;;;;;;;;19.20;53.60;;;;;;8366061;28;20270;-45
2022/10/27 08:37:08;;;;;;;;;;;19.20;53.50;;;;;;8366327;28;20426;-45
2022/10/27 08:41:15;;;;;;;;;;;19.30;53.50;;;;;;8365698;28;19917;-44
2022/10/27 08:45:27;;;;;;;;;;;19.20;53.50;;;;;;8365103;28;19917;-46
2022/10/27 08:49:50;;;;;;;;;;;19.20;53.40;;;;;;8365382;28;19917;-45
2022/10/27 08:53:52;;;;;;;;;;;19.30;53.50;;;;;;8365640;28;19924;-46
2022/10/27 08:57:58;;;;;;;;;;;19.30;53.50;;;;;;8365086;28;20397;-45
2022/10/27 09:02:09;;;;;;;;;;;19.20;53.50;;;;;;8365216;28;19923;-45
2022/10/27 09:06:12;;;;;;;;;;;19.20;53.50;;;;;;8365274;28;19921;-45
2022/10/27 09:10:22;;;;;;;;;;;19.20;53.50;;;;;;8365157;28;19916;-45
2022/10/27 09:14:44;;;;;;;;;;;19.20;53.50;;;;;;8364087;28;19925;-44
2022/10/27 09:18:50;;;;;;;;;;;19.30;53.60;;;;;;8364076;28;19917;-45
2022/10/27 09:22:52;;;;;;;;;;;19.30;53.60;;;;;;8364882;28;19913;-45
2022/10/27 09:26:55;;;;;;;;;;;19.30;53.60;;;;;;8364452;28;19924;-46
2022/10/27 09:30:56;;;;;;;;;;;19.20;53.60;;;;;;8363900;28;19939;-45
2022/10/27 09:35:10;;;;;;;;;;;19.20;53.60;;;;;;8363915;28;20251;-46
2022/10/27 09:39:10;;;;;;;;;;;19.30;53.70;;;;;;8364012;28;20269;-45
2022/10/27 09:43:11;;;;;;;;;;;19.30;53.70;;;;;;8364056;28;19919;-45
2022/10/27 09:47:11;;;;;;;;;;;19.30;53.70;;;;;;8363713;28;19917;-45
2022/10/27 09:51:20;;;;;;;;;;;19.30;53.70;;;;;;8363452;28;19971;-45
2022/10/27 09:55:21;;;;;;;;;;;19.30;53.60;;;;;;8363403;28;20007;-45
2022/10/27 09:59:22;;;;;;;;;;;19.30;53.60;;;;;;8363484;28;19940;-45
2022/10/27 10:03:23;;;;;;;;;;;19.30;53.60;;;;;;8363035;28;19951;-46
2022/10/27 10:07:39;;;;;;;;;;;19.30;53.60;;;;;;8357962;28;19921;-46
2022/10/27 10:11:40;;;;;;;;;;;19.30;53.60;;;;;;8356203;28;19924;-45
2022/10/27 10:15:42;;;;;;;;;;;19.40;53.60;;;;;;8362680;28;19925;-46
2022/10/27 10:19:44;;;;;;;;;;;19.40;53.60;;;;;;8363436;28;20382;-44
2022/10/27 10:23:45;;;;;;;;;;;19.40;53.60;;;;;;8364772;28;19958;-46
2022/10/27 10:27:46;;;;;;;;;;;19.40;53.60;;;;;;8369773;28;19913;-45
2022/10/27 10:31:47;;;;;;;;;;;19.40;53.60;;;;;;8369713;28;19959;-45
2022/10/27 10:35:48;;;;;;;;;;;19.40;53.60;;;;;;8369723;28;20361;-45
2022/10/27 10:39:49;;;;;;;;;;;19.40;53.60;;;;;;8369029;28;20329;-44
2022/10/27 10:44:11;;;;;;;;;;;19.40;53.60;;;;;;8369364;28;20027;-44
2022/10/27 10:48:14;;;;;;;;;;;19.40;53.60;;;;;;8369143;28;19963;-43
2022/10/27 10:52:17;;;;;;;;;;;19.40;53.60;;;;;;8369144;28;20428;-45
2022/10/27 10:56:26;;;;;;;;;;;19.40;53.70;;;;;;8368897;28;19925;-45
2022/10/27 11:00:27;;;;;;;;;;;19.40;53.70;;;;;;8368497;28;19917;-46
2022/10/27 11:04:29;;;;;;;;;;;19.40;53.70;;;;;;8368527;28;19928;-44
2022/10/27 11:08:41;;;;;;;;;;;19.40;53.70;;;;;;8368936;28;19966;-44
2022/10/27 11:12:47;;;;;;;;;;;19.40;53.70;;;;;;8368157;28;19917;-44
2022/10/27 11:16:54;;;;;;;;;;;19.40;53.70;;;;;;8368310;28;19932;-44
2022/10/27 11:21:00;;;;;;;;;;;19.50;53.70;;;;;;8367780;28;19917;-46
2022/10/27 11:25:00;;;;;;;;;;;19.50;53.70;;;;;;8368289;28;19920;-45
2022/10/27 11:29:07;;;;;;;;;;;19.50;53.70;;;;;;8368203;28;19913;-45
2022/10/27 11:33:26;;;;;;;;;;;19.50;53.70;;;;;;8367722;28;20298;-46
2022/10/27 11:37:29;;;;;;;;;;;19.50;53.70;;;;;;8366808;28;20345;-47
2022/10/27 11:41:45;;;;;;;;;;;19.50;53.60;;;;;;8367751;28;19917;-45
2022/10/27 11:45:45;;;;;;;;;;;19.50;53.60;;;;;;8366998;28;19917;-46
2022/10/27 11:49:55;;;;;;;;;;;19.60;53.60;;;;;;8367503;28;20430;-45
2022/10/27 11:53:55;;;;;;;;;;;19.60;53.60;;;;;;8366960;28;19917;-45
2022/10/27 11:58:04;;;;;;;;;;;19.60;53.60;;;;;;8367034;28;19927;-45
2022/10/27 12:02:11;;;;;;;;;;;19.60;53.60;;;;;;8367178;28;20301;-45
2022/10/27 12:06:17;;;;;;;;;;;19.60;53.60;;;;;;8366300;28;19921;-45
2022/10/27 12:10:20;;;;;;;;;;;19.60;53.60;;;;;;8366737;28;19917;-44
2022/10/27 12:14:36;;;;;;;;;;;19.60;53.60;;;;;;8366819;28;19923;-44
2022/10/27 12:18:48;;;;;;;;;;;19.60;53.60;;;;;;8366377;28;19920;-44
2022/10/27 12:22:53;;;;;;;;;;;19.60;53.60;;;;;;8366313;28;20279;-44
2022/10/27 12:26:56;;;;;;;;;;;19.60;53.70;;;;;;8365851;28;19982;-44
2022/10/27 12:30:57;;;;;;;;;;;19.60;53.60;;;;;;8366278;28;20397;-44
2022/10/27 12:35:27;;;;;;;;;;;19.60;53.60;;;;;;8365917;28;19924;-44
2022/10/27 12:39:32;;;;;;;;;;;19.60;53.60;;;;;;8346310;28;19920;-44
2022/10/27 12:43:32;;;;;;;;;;;19.60;53.60;;;;;;8365986;28;19917;-46
2022/10/27 12:47:51;;;;;;;;;;;19.70;53.60;;;;;;8369144;28;19917;-45
2022/10/27 12:51:54;;;;;;;;;;;19.70;53.60;;;;;;8376991;28;19923;-43
2022/10/27 12:55:59;;;;;;;;;;;19.70;53.60;;;;;;8359405;28;19931;-44
2022/10/27 13:00:00;;;;;;;;;;;19.70;53.60;;;;;;8360826;28;19970;-45
2022/10/27 13:04:19;;;;;;;;;;;19.70;53.60;;;;;;8374252;28;19924;-45
2022/10/27 13:08:37;;;;;;;;;;;19.70;53.60;;;;;;8366086;28;20389;-43
2022/10/27 13:12:44;;;;;;;;;;;19.70;53.60;;;;;;8356570;28;19924;-44
2022/10/27 13:17:00;;;;;;;;;;;19.70;53.60;;;;;;8356323;28;19975;-45
2022/10/27 13:21:32;;;;;;;;;;;19.70;53.60;;;;;;8360572;28;19917;-46
2022/10/27 13:25:36;;;;;;;;;;;19.70;53.50;;;;;;8326747;28;19920;-45
2022/10/27 13:29:50;;;;;;;;;;;19.70;53.50;;;;;;8353259;28;19913;-45
2022/10/27 13:33:56;;;;;;;;;;;19.70;53.60;;;;;;8344935;28;19952;-45
2022/10/27 13:38:06;;;;;;;;;;;19.70;53.60;;;;;;8360612;28;19925;-44
2022/10/27 13:42:12;;;;;;;;;;;19.70;53.60;;;;;;8354431;28;20003;-44
2022/10/27 13:46:13;;;;;;;;;;;19.80;53.50;;;;;;8360701;28;19969;-46
2022/10/27 13:50:30;;;;;;;;;;;19.80;53.50;;;;;;8360437;28;19921;-47
2022/10/27 13:54:52;;;;;;;;;;;19.80;53.60;;;;;;8393442;28;19920;-45
2022/10/27 13:59:14;;;;;;;;;;;19.80;53.50;;;;;;8381660;28;19916;-44
2022/10/27 14:03:33;;;;;;;;;;;19.80;53.50;;;;;;8384301;28;19917;-48
2022/10/27 14:07:35;;;;;;;;;;;19.80;53.60;;;;;;8378751;28;19974;-44
2022/10/27 14:11:36;;;;;;;;;;;19.80;53.50;;;;;;8364476;28;20372;-49
2022/10/27 14:15:36;;;;;;;;;;;19.80;53.60;;;;;;8392177;28;19979;-44
2022/10/27 14:19:37;;;;;;;;;;;19.80;53.60;;;;;;8354720;28;19925;-45
2022/10/27 14:23:38;;;;;;;;;;;19.80;53.60;;;;;;8358105;28;19916;-43
2022/10/27 14:27:39;;;;;;;;;;;19.80;53.60;;;;;;8348124;28;19917;-44
2022/10/27 14:31:39;;;;;;;;;;;19.80;53.60;;;;;;8360503;28;20600;-44
2022/10/27 14:35:40;;;;;;;;;;;19.80;53.60;;;;;;8359585;28;20386;-44
2022/10/27 14:39:40;;;;;;;;;;;19.80;53.60;;;;;;8360136;28;20374;-43
2022/10/27 14:43:42;;;;;;;;;;;19.80;53.50;;;;;;8355301;28;20369;-45
2022/10/27 14:47:46;;;;;;;;;;;19.80;53.50;;;;;;8357266;28;20082;-46
2022/10/27 14:51:47;;;;;;;;;;;19.80;53.50;;;;;;8359047;28;20400;-44
2022/10/27 14:56:00;;;;;;;;;;;19.80;53.50;;;;;;8357206;28;19933;-45
2022/10/27 15:00:01;;;;;;;;;;;19.80;53.60;;;;;;8355151;28;19917;-45
2022/10/27 15:04:20;;;;;;;;;;;19.80;53.50;;;;;;8379407;28;19931;-45
2022/10/27 15:08:24;;;;;;;;;;;19.80;53.60;;;;;;8383131;28;19916;-45
2022/10/27 15:12:32;;;;;;;;;;;19.80;53.60;;;;;;8383558;28;19979;-45
2022/10/27 15:16:32;;;;;;;;;;;19.80;53.60;;;;;;8368390;28;19925;-45
2022/10/27 15:20:33;;;;;;;;;;;19.80;53.60;;;;;;8370906;28;20375;-45
2022/10/27 15:24:34;;;;;;;;;;;19.80;53.60;;;;;;8398278;28;20030;-45
2022/10/27 15:28:35;;;;;;;;;;;19.80;53.60;;;;;;8400786;28;20205;-45
2022/10/27 15:32:37;;;;;;;;;;;19.80;53.60;;;;;;8399377;28;19916;-45
2022/10/27 15:36:38;;;;;;;;;;;19.80;53.60;;;;;;8400178;28;20428;-44
2022/10/27 15:40:43;;;;;;;;;;;19.80;53.70;;;;;;8401147;28;19917;-45
2022/10/27 15:44:44;;;;;;;;;;;19.80;53.70;;;;;;8400406;28;20067;-45
2022/10/27 15:48:46;;;;;;;;;;;19.80;53.70;;;;;;8399936;28;19917;-45
2022/10/27 15:52:46;;;;;;;;;;;19.80;53.70;;;;;;8400321;28;19921;-46
2022/10/27 15:56:51;;;;;;;;;;;19.80;53.70;;;;;;8399980;28;19978;-43
2022/10/27 16:01:14;;;;;;;;;;;19.80;53.80;;;;;;8399391;28;19916;-44
2022/10/27 16:05:30;;;;;;;;;;;19.80;53.80;;;;;;8391564;28;19925;-44
2022/10/27 16:09:43;;;;;;;;;;;19.80;53.80;;;;;;8358861;28;19952;-45
2022/10/27 16:13:46;;;;;;;;;;;19.80;53.80;;;;;;8356096;28;19924;-46
2022/10/27 16:17:48;;;;;;;;;;;19.80;53.80;;;;;;8366409;28;19924;-44
2022/10/27 16:21:49;;;;;;;;;;;19.80;53.80;;;;;;8365513;28;19947;-44
2022/10/27 16:25:49;;;;;;;;;;;19.80;53.80;;;;;;8366620;28;20328;-44
2022/10/27 16:29:57;;;;;;;;;;;19.80;53.80;;;;;;8365931;28;20430;-45
2022/10/27 16:33:58;;;;;;;;;;;19.80;53.80;;;;;;8365365;28;20413;-45
2022/10/27 16:37:59;;;;;;;;;;;19.80;53.90;;;;;;8365689;28;19925;-44
2022/10/27 16:42:00;;;;;;;;;;;19.80;53.90;;;;;;8365078;28;19942;-45
2022/10/27 16:46:00;;;;;;;;;;;19.80;53.90;;;;;;8365440;28;19921;-44
2022/10/27 16:50:01;;;;;;;;;;;19.80;53.90;;;;;;8365410;28;19920;-44
2022/10/27 16:54:01;;;;;;;;;;;19.80;53.90;;;;;;8364903;28;19970;-43
2022/10/27 16:58:02;;;;;;;;;;;19.80;54.00;;;;;;8365297;28;19925;-43
2022/10/27 17:02:02;;;;;;;;;;;19.70;53.90;;;;;;8365182;28;19917;-44
2022/10/27 17:06:03;;;;;;;;;;;19.80;53.90;;;;;;8364714;28;20381;-44
2022/10/27 17:10:04;;;;;;;;;;;19.80;54.00;;;;;;8364695;28;19972;-44
2022/10/27 17:14:04;;;;;;;;;;;19.80;54.00;;;;;;8364666;28;19921;-44
2022/10/27 17:18:05;;;;;;;;;;;19.80;53.90;;;;;;8364180;28;20014;-44
2022/10/27 17:22:05;;;;;;;;;;;19.70;53.90;;;;;;8364418;28;19923;-45
2022/10/27 17:26:07;;;;;;;;;;;19.80;54.00;;;;;;8364539;28;19917;-44
2022/10/27 17:30:08;;;;;;;;;;;19.70;54.00;;;;;;8363788;28;20374;-44
2022/10/27 17:34:08;;;;;;;;;;;19.70;53.90;;;;;;8363513;28;19916;-44
2022/10/27 17:38:08;;;;;;;;;;;19.70;53.90;;;;;;8364061;28;19927;-44
2022/10/27 17:42:09;;;;;;;;;;;19.70;54.00;;;;;;8363497;28;19917;-44
2022/10/27 17:46:17;;;;;;;;;;;19.70;54.00;;;;;;8364394;28;19996;-44
2022/10/27 17:50:17;;;;;;;;;;;19.70;54.00;;;;;;8363743;28;19939;-44
2022/10/27 17:54:17;;;;;;;;;;;19.70;54.00;;;;;;8362783;28;19927;-45
2022/10/27 17:58:18;;;;;;;;;;;19.70;54.00;;;;;;8363652;28;19921;-45
2022/10/27 18:02:18;;;;;;;;;;;19.70;54.00;;;;;;8363565;28;19917;-44
2022/10/27 18:06:23;;;;;;;;;;;19.70;54.10;;;;;;8363038;28;19921;-43
2022/10/27 18:10:23;;;;;;;;;;;19.70;54.00;;;;;;8363394;28;19917;-44
2022/10/27 18:14:24;;;;;;;;;;;19.70;54.10;;;;;;8363156;28;20433;-46
2022/10/27 18:18:25;;;;;;;;;;;19.70;54.00;;;;;;8362734;28;19917;-44
2022/10/27 18:22:26;;;;;;;;;;;19.70;54.00;;;;;;8363152;28;20381;-45
2022/10/27 18:26:31;;;;;;;;;;;19.70;54.00;;;;;;8363353;28;19920;-42
2022/10/27 18:30:32;;;;;;;;;;;19.70;54.00;;;;;;8362570;28;19963;-43
2022/10/27 18:34:32;;;;;;;;;;;19.70;54.00;;;;;;8362776;28;19920;-44
2022/10/27 18:38:33;;;;;;;;;;;19.70;54.00;;;;;;8362948;28;19917;-44
2022/10/27 18:42:34;;;;;;;;;;;19.70;54.00;;;;;;8362412;28;19927;-43
2022/10/27 18:46:35;;;;;;;;;;;19.70;54.00;;;;;;8367712;28;19927;-44
2022/10/27 18:50:37;;;;;;;;;;;19.70;54.00;;;;;;8369182;28;20335;-44
2022/10/27 18:54:38;;;;;;;;;;;19.70;54.00;;;;;;8368562;28;19921;-43
2022/10/27 18:58:38;;;;;;;;;;;19.70;54.10;;;;;;8368941;28;19917;-45
2022/10/27 19:02:39;;;;;;;;;;;19.70;54.10;;;;;;8368829;28;20016;-44
2022/10/27 19:06:40;;;;;;;;;;;19.70;54.10;;;;;;8367389;28;19920;-44
2022/10/27 19:10:40;;;;;;;;;;;19.70;54.10;;;;;;8368586;28;19917;-42
2022/10/27 19:14:41;;;;;;;;;;;19.70;54.10;;;;;;8368142;28;19921;-43
2022/10/27 19:18:41;;;;;;;;;;;19.70;54.10;;;;;;8368545;28;19917;-43
2022/10/27 19:22:42;;;;;;;;;;;19.60;54.00;;;;;;8368326;28;19913;-44
2022/10/27 19:26:42;;;;;;;;;;;19.60;54.00;;;;;;8368438;28;20271;-43
2022/10/27 19:30:50;;;;;;;;;;;19.60;54.00;;;;;;8367457;28;19963;-43
2022/10/27 19:34:51;;;;;;;;;;;19.70;54.60;;;;;;8373469;28;19925;-44
2022/10/27 19:38:51;;;;;;;;;;;19.70;54.10;;;;;;8367874;28;19912;-44
2022/10/27 19:42:52;;;;;;;;;;;19.70;54.00;;;;;;8367306;28;20358;-43
2022/10/27 19:46:52;;;;;;;;;;;19.70;54.10;;;;;;8367908;28;19913;-44
2022/10/27 19:50:53;;;;;;;;;;;19.70;54.10;;;;;;8367263;28;19916;-45
2022/10/27 19:54:53;;;;;;;;;;;19.70;54.10;;;;;;8366787;28;20019;-44
2022/10/27 19:58:56;;;;;;;;;;;19.60;54.00;;;;;;8366420;28;19948;-44
2022/10/27 20:02:57;;;;;;;;;;;19.60;54.00;;;;;;8366691;28;20283;-43
2022/10/27 20:06:57;;;;;;;;;;;19.70;54.00;;;;;;8367434;28;19916;-44
2022/10/27 20:10:58;;;;;;;;;;;19.70;54.10;;;;;;8366166;28;19916;-44
2022/10/27 20:14:58;;;;;;;;;;;19.70;54.10;;;;;;8366210;28;19924;-44
2022/10/27 20:18:59;;;;;;;;;;;19.70;54.10;;;;;;8366349;28;19917;-43
2022/10/27 20:23:00;;;;;;;;;;;19.60;54.00;;;;;;8366696;28;19923;-44
2022/10/27 20:27:00;;;;;;;;;;;19.60;54.00;;;;;;8366110;28;20366;-43
2022/10/27 20:31:05;;;;;;;;;;;19.60;54.10;;;;;;8365977;28;20374;-44
2022/10/27 20:35:07;;;;;;;;;;;19.60;54.00;;;;;;8365857;28;20019;-45
2022/10/27 20:39:08;;;;;;;;;;;19.60;54.00;;;;;;8365315;28;19928;-44
2022/10/27 20:43:09;;;;;;;;;;;19.60;54.00;;;;;;8365800;28;19921;-43
2022/10/27 20:47:09;;;;;;;;;;;19.60;54.60;;;;;;8365860;28;19917;-43
2022/10/27 20:51:11;;;;;;;;;;;19.60;54.00;;;;;;8365109;28;19950;-44
2022/10/27 20:55:11;;;;;;;;;;;19.60;54.00;;;;;;8365628;28;19924;-43
2022/10/27 20:59:12;;;;;;;;;;;19.60;54.00;;;;;;8365386;28;20293;-43
2022/10/27 21:03:12;;;;;;;;;;;19.60;54.00;;;;;;8364632;28;20346;-44
2022/10/27 21:07:13;;;;;;;;;;;19.60;54.00;;;;;;8365058;28;19948;-43
2022/10/27 21:11:13;;;;;;;;;;;19.60;54.00;;;;;;8364218;28;19999;-45
2022/10/27 21:15:14;;;;;;;;;;;19.60;54.00;;;;;;8364566;28;19932;-44
2022/10/27 21:19:14;;;;;;;;;;;19.60;54.00;;;;;;8364823;28;20340;-44
2022/10/27 21:23:15;;;;;;;;;;;19.60;54.00;;;;;;8364360;28;19912;-44
2022/10/27 21:27:15;;;;;;;;;;;19.60;54.00;;;;;;8364302;28;20301;-44
2022/10/27 21:31:16;;;;;;;;;;;19.60;54.00;;;;;;8364294;28;20426;-44
2022/10/27 21:35:17;;;;;;;;;;;19.60;54.00;;;;;;8363380;28;19987;-45
2022/10/27 21:39:18;;;;;;;;;;;19.60;54.00;;;;;;8354358;28;19918;-44
2022/10/27 21:43:18;;;;;;;;;;;19.60;54.00;;;;;;8331174;28;19913;-44
2022/10/27 21:47:19;;;;;;;;;;;19.60;53.90;;;;;;8331363;28;20000;-44
2022/10/27 21:51:19;;;;;;;;;;;19.60;53.90;;;;;;8330414;28;19917;-42
2022/10/27 21:55:20;;;;;;;;;;;19.60;53.90;;;;;;8330594;28;19926;-44
2022/10/27 21:59:20;;;;;;;;;;;19.60;53.90;;;;;;8330837;28;19917;-45
2022/10/27 22:03:21;;;;;;;;;;;19.60;53.90;;;;;;8350170;28;19921;-43
2022/10/27 22:07:21;;;;;;;;;;;19.60;53.90;;;;;;8363730;28;19923;-44
2022/10/27 22:11:26;;;;;;;;;;;19.60;53.80;;;;;;8363305;28;20332;-44
2022/10/27 22:15:27;;;;;;;;;;;19.60;53.80;;;;;;8362977;28;19933;-45
2022/10/27 22:19:29;;;;;;;;;;;19.60;53.80;;;;;;8365783;28;20421;-44
2022/10/27 22:23:29;;;;;;;;;;;19.60;53.80;;;;;;8374076;28;19932;-43
2022/10/27 22:27:29;;;;;;;;;;;19.60;53.80;;;;;;8374060;28;19939;-43
2022/10/27 22:31:31;;;;;;;;;;;19.60;53.80;;;;;;8374016;28;20362;-46
2022/10/27 22:35:31;;;;;;;;;;;19.60;53.80;;;;;;8373883;28;19925;-44
2022/10/27 22:39:32;;;;;;;;;;;19.60;53.90;;;;;;8373641;28;19973;-43
2022/10/27 22:43:33;;;;;;;;;;;19.60;53.90;;;;;;8374379;28;19913;-45
2022/10/27 22:47:33;;;;;;;;;;;19.60;53.90;;;;;;8373969;28;19917;-45
2022/10/27 22:51:34;;;;;;;;;;;19.60;53.80;;;;;;8373433;28;19924;-45
2022/10/27 22:55:34;;;;;;;;;;;19.50;53.80;;;;;;8373662;28;19928;-43
2022/10/27 22:59:35;;;;;;;;;;;19.50;53.80;;;;;;8373786;28;19912;-43
2022/10/27 23:03:35;;;;;;;;;;;19.50;53.80;;;;;;8373492;28;19967;-43
2022/10/27 23:07:36;;;;;;;;;;;19.50;53.80;;;;;;8373628;28;19921;-42
2022/10/27 23:11:36;;;;;;;;;;;19.50;53.80;;;;;;8373593;28;19927;-43
2022/10/27 23:15:37;;;;;;;;;;;19.50;53.80;;;;;;8372957;28;19932;-43
2022/10/27 23:19:37;;;;;;;;;;;19.50;53.80;;;;;;8373405;28;19940;-43
2022/10/27 23:23:38;;;;;;;;;;;19.50;53.80;;;;;;8373654;28;19912;-44
2022/10/27 23:27:38;;;;;;;;;;;19.50;53.80;;;;;;8372900;28;19916;-42
2022/10/27 23:31:38;;;;;;;;;;;19.40;53.80;;;;;;8370070;28;19924;-44